Terminal Aerodrome Forecast
Issued by NWS Sioux Falls, SD

Home | Current Version | Previous Version | Text Only | Print | Product List | Glossary On
Versions: 1 2 3 4 5 6 7 8 9 10 11 12 13 14 15
398
FTUS43 KFSD 161051 AAB
TAFFSD
TAF AMD
KFSD 161051Z 1611/1706 33007KT P6SM SCT025
     FM161400 33008KT P6SM SKC
     FM170000 VRB02KT P6SM FEW045=

USA.gov is the U.S. government's official web portal to all federal, state and local government web resources and services.